Time;durP1;ratioP1;P1;durP2;ratioP2;P2;SDS_P1;SDS_P2;PMS_P1;PMS_P2;Temp;Humidity;BMP_temperature;BMP_pressure;BME280_temperature;BME280_humidity;BME280_pressure;Samples;Min_cycle;Max_cycle;Signal;HPM_P1;HPM_P2
2022/01/22 00:00:56;;;;;;;0.88;0.80;;;;;;;16.42;60.04;99647.41;3119849;28;20045;-51
2022/01/22 00:02:28;;;;;;;1.00;0.80;;;;;;;16.41;60.09;99645.72;3124792;28;20054;-49
2022/01/22 00:04:01;;;;;;;1.08;0.85;;;;;;;16.40;60.17;99652.91;3122414;28;20045;-49
2022/01/22 00:05:34;;;;;;;1.50;1.05;;;;;;;16.37;60.20;99655.91;3119490;28;20056;-50
2022/01/22 00:07:06;;;;;;;3.13;1.15;;;;;;;16.33;60.15;99646.56;3123057;28;20045;-47
2022/01/22 00:08:38;;;;;;;1.30;1.00;;;;;;;16.33;60.31;99659.09;3121699;28;20049;-52
2022/01/22 00:10:14;;;;;;;0.90;0.90;;;;;;;16.30;60.31;99645.03;3123535;28;20077;-52
2022/01/22 00:11:52;;;;;;;1.23;1.00;;;;;;;16.29;60.22;99651.38;3123835;28;20052;-50
2022/01/22 00:15:19;;;;;;;1.33;0.98;;;;;;;16.26;60.19;99640.16;3122274;28;20069;-50
2022/01/22 00:16:52;;;;;;;2.22;1.05;;;;;;;16.25;60.37;99638.50;3121778;28;20867;-50
2022/01/22 00:18:24;;;;;;;1.15;1.00;;;;;;;16.22;60.29;99647.69;3119330;28;20046;-50
2022/01/22 00:19:56;;;;;;;1.30;1.17;;;;;;;16.21;60.42;99656.69;3122247;28;20473;-50
2022/01/22 00:21:31;;;;;;;1.80;1.30;;;;;;;16.19;60.30;99648.03;3120419;28;20616;-51
2022/01/22 00:23:04;;;;;;;1.02;0.90;;;;;;;16.15;60.48;99652.00;3120279;28;20108;-52
2022/01/22 00:24:38;;;;;;;1.15;1.00;;;;;;;16.14;60.45;99650.34;3120625;28;20053;-49
2022/01/22 00:26:10;;;;;;;1.00;0.90;;;;;;;16.13;60.60;99658.53;3124991;28;20041;-52
2022/01/22 00:27:45;;;;;;;1.02;1.02;;;;;;;16.10;60.57;99659.69;3121805;28;20064;-49
2022/01/22 00:29:20;;;;;;;1.13;1.02;;;;;;;16.09;60.58;99658.84;3118774;28;20719;-49
2022/01/22 00:30:52;;;;;;;1.67;1.08;;;;;;;16.06;60.69;99656.50;3119285;28;20083;-51
2022/01/22 00:32:24;;;;;;;1.60;1.00;;;;;;;16.04;60.59;99661.16;3117537;28;20079;-50
2022/01/22 00:33:58;;;;;;;1.40;1.25;;;;;;;16.04;60.50;99655.81;3122296;28;20056;-48
2022/01/22 00:35:30;;;;;;;1.38;0.95;;;;;;;16.01;60.52;99653.47;3124289;28;20419;-49
2022/01/22 00:37:05;;;;;;;1.55;1.10;;;;;;;16.00;60.67;99650.97;3123150;28;20048;-48
2022/01/22 00:38:35;;;;;;;1.13;1.00;;;;;;;15.99;60.73;99644.78;3121137;28;20053;-50
2022/01/22 00:40:10;;;;;;;1.50;1.40;;;;;;;15.98;60.70;99644.94;3119819;28;20051;-49
2022/01/22 00:41:42;;;;;;;2.22;0.80;;;;;;;15.98;60.64;99655.63;3116720;28;20362;-51
2022/01/22 00:43:17;;;;;;;1.10;0.93;;;;;;;15.95;60.60;99640.75;3119674;28;20554;-52
2022/01/22 00:44:51;;;;;;;1.48;1.25;;;;;;;15.92;60.78;99650.94;3121302;28;20794;-52
2022/01/22 00:46:25;;;;;;;1.45;1.38;;;;;;;15.91;60.88;99657.28;3121128;28;20049;-50
2022/01/22 00:47:57;;;;;;;2.05;1.30;;;;;;;15.89;60.91;99649.41;3123724;28;20099;-50
2022/01/22 00:49:30;;;;;;;0.95;0.80;;;;;;;15.88;60.78;99660.28;3120454;28;20041;-49
2022/01/22 00:51:01;;;;;;;1.83;1.15;;;;;;;15.84;60.83;99652.56;3124649;28;20056;-52
2022/01/22 00:52:38;;;;;;;1.30;1.13;;;;;;;15.82;60.89;99657.25;3123979;28;20048;-49
2022/01/22 00:54:10;;;;;;;1.58;1.40;;;;;;;15.80;60.86;99653.91;3118900;28;20283;-53
2022/01/22 00:55:42;;;;;;;2.80;1.45;;;;;;;15.79;60.85;99657.56;3120653;28;20052;-51
2022/01/22 00:57:21;;;;;;;1.90;1.63;;;;;;;15.79;60.87;99651.38;3118727;28;20057;-51
2022/01/22 00:58:55;;;;;;;2.05;1.10;;;;;;;15.77;60.99;99654.22;3119380;28;20503;-53
2022/01/22 01:00:28;;;;;;;0.95;0.88;;;;;;;15.74;60.84;99649.19;3116895;28;20099;-52
2022/01/22 01:02:04;;;;;;;1.15;1.05;;;;;;;15.74;61.03;99651.00;3121596;28;20151;-52
2022/01/22 01:03:35;;;;;;;1.30;1.20;;;;;;;15.71;60.94;99652.19;3123664;28;20042;-49
2022/01/22 01:05:10;;;;;;;1.58;1.30;;;;;;;15.71;61.02;99645.97;3121207;28;20052;-50
2022/01/22 01:06:42;;;;;;;1.42;1.30;;;;;;;15.69;61.03;99648.00;3117823;28;20056;-53
2022/01/22 01:08:14;;;;;;;1.17;1.08;;;;;;;15.66;61.15;99643.78;3122334;28;20122;-52
2022/01/22 01:09:46;;;;;;;1.63;1.30;;;;;;;15.63;61.11;99644.94;3117953;28;20045;-53
2022/01/22 01:11:18;;;;;;;1.63;1.10;;;;;;;15.63;61.18;99652.13;3120598;28;20479;-54
2022/01/22 01:12:55;;;;;;;0.98;0.98;;;;;;;15.63;61.13;99644.09;3124463;28;20044;-52
2022/01/22 01:14:35;;;;;;;2.92;1.40;;;;;;;15.60;61.04;99641.72;3117979;28;20056;-50
2022/01/22 01:16:18;;;;;;;1.48;1.27;;;;;;;15.58;61.00;99638.38;3120976;28;20048;-52
2022/01/22 01:32:07;;;;;;;3.05;1.50;;;;;;;15.55;61.04;99644.06;3123344;28;20059;-51
2022/01/22 01:32:55;;;;;;;2.42;1.90;;;;;;;15.41;61.51;99654.34;3119439;28;20494;-51
2022/01/22 01:34:31;;;;;;;1.83;1.50;;;;;;;15.40;61.37;99651.81;3124543;28;20049;-51
2022/01/22 01:36:05;;;;;;;1.77;1.40;;;;;;;15.39;61.29;99655.50;3123171;28;20132;-52
2022/01/22 01:37:36;;;;;;;2.63;1.25;;;;;;;15.37;61.26;99652.97;3117143;28;20132;-51
2022/01/22 01:39:11;;;;;;;1.42;1.20;;;;;;;15.35;61.45;99654.97;3116485;28;20294;-49
2022/01/22 01:40:45;;;;;;;1.65;1.20;;;;;;;15.33;61.43;99648.94;3118252;28;20554;-52
2022/01/22 01:42:26;;;;;;;1.67;1.10;;;;;;;15.31;61.41;99648.25;3122545;28;20107;-50
2022/01/22 01:43:57;;;;;;;2.42;2.22;;;;;;;15.31;61.44;99652.75;3123453;28;20043;-51
2022/01/22 01:45:29;;;;;;;1.95;1.20;;;;;;;15.30;61.31;99649.25;3122542;28;20707;-52
2022/01/22 01:47:05;;;;;;;1.80;1.25;;;;;;;15.29;61.31;99654.75;3120066;28;20041;-50
2022/01/22 01:48:39;;;;;;;1.35;1.25;;;;;;;15.28;61.34;99650.41;3116573;28;20099;-51
2022/01/22 01:50:11;;;;;;;3.38;2.03;;;;;;;15.26;61.24;99645.19;3120702;28;20045;-50
2022/01/22 01:51:43;;;;;;;1.20;1.10;;;;;;;15.27;61.45;99646.06;3122138;28;20053;-50
2022/01/22 01:53:25;;;;;;;1.27;1.15;;;;;;;15.26;61.42;99649.72;3123615;28;20079;-55
2022/01/22 01:55:03;;;;;;;;;;;;;;;15.22;61.54;99649.19;3122595;28;20556;-55
2022/01/22 01:58:29;;;;;;;1.42;1.33;;;;;;;15.18;61.45;99647.81;3120003;28;20049;-52
2022/01/22 02:00:00;;;;;;;1.90;1.10;;;;;;;15.16;61.45;99652.50;3122472;28;20041;-52
2022/01/22 02:01:32;;;;;;;1.98;1.50;;;;;;;15.14;61.50;99652.66;3123643;28;20053;-51
2022/01/22 02:03:05;;;;;;;1.58;1.20;;;;;;;15.14;61.43;99663.34;3121498;28;20045;-54
2022/01/22 02:04:37;;;;;;;1.40;1.10;;;;;;;15.12;61.61;99653.78;3119364;28;20442;-48
2022/01/22 02:06:09;;;;;;;1.45;1.10;;;;;;;15.11;61.47;99657.47;3117773;28;20157;-52
2022/01/22 02:07:43;;;;;;;1.70;1.60;;;;;;;15.10;61.62;99656.66;3123883;28;20056;-50
2022/01/22 02:09:15;;;;;;;1.45;1.35;;;;;;;15.08;61.66;99650.59;3123169;28;20507;-50
2022/01/22 02:10:54;;;;;;;1.55;1.45;;;;;;;15.07;61.57;99656.97;3120946;28;20052;-51
2022/01/22 02:12:48;;;;;;;1.77;1.10;;;;;;;15.07;61.55;99662.31;3116676;28;20042;-52
2022/01/22 02:23:52;;;;;;;1.98;1.50;;;;;;;14.97;61.56;99651.69;3122386;28;20045;-48
2022/01/22 02:25:24;;;;;;;2.65;1.20;;;;;;;14.96;61.72;99646.53;3125808;28;20045;-50
2022/01/22 02:26:56;;;;;;;1.50;1.25;;;;;;;14.94;61.72;99651.16;3125416;28;20075;-51
2022/01/22 02:28:27;;;;;;;4.28;1.45;;;;;;;14.93;61.66;99652.16;3124334;28;20053;-52
2022/01/22 02:29:59;;;;;;;1.77;1.20;;;;;;;14.93;61.67;99649.47;3124184;28;20057;-49
2022/01/22 02:31:37;;;;;;;1.35;1.25;;;;;;;14.91;61.78;99649.66;3127416;28;20303;-50
2022/01/22 02:33:19;;;;;;;1.55;1.42;;;;;;;14.90;61.61;99647.13;3122076;28;20629;-52
2022/01/22 02:34:55;;;;;;;1.30;1.20;;;;;;;14.90;61.52;99644.44;3115416;28;20404;-50
2022/01/22 02:36:36;;;;;;;1.30;1.08;;;;;;;14.89;61.76;99648.13;3113284;28;20570;-52
2022/01/22 02:38:18;;;;;;;1.90;1.52;;;;;;;14.88;61.53;99652.63;3115534;28;20049;-49
2022/01/22 02:40:00;;;;;;;1.92;1.35;;;;;;;14.90;61.79;99652.47;3115657;28;20091;-49
2022/01/22 02:41:36;;;;;;;1.00;0.90;;;;;;;14.90;61.71;99653.28;3114703;28;20044;-53
2022/01/22 02:43:11;;;;;;;1.80;1.30;;;;;;;14.91;61.60;99652.31;3116404;28;20056;-49
2022/01/22 02:44:46;;;;;;;2.58;1.58;;;;;;;14.92;61.73;99653.16;3115995;28;20871;-49
2022/01/22 02:46:21;;;;;;;0.85;0.85;;;;;;;14.93;61.66;99655.69;3114689;28;20137;-50
2022/01/22 02:47:53;;;;;;;2.05;1.35;;;;;;;14.94;61.63;99648.50;3115408;28;20092;-50
2022/01/22 02:49:25;;;;;;;1.30;1.13;;;;;;;14.95;61.53;99650.16;3114545;28;20123;-51
2022/01/22 02:50:57;;;;;;;1.88;1.20;;;;;;;14.94;61.72;99652.00;3115062;28;20057;-48
2022/01/22 02:52:28;;;;;;;1.35;1.08;;;;;;;14.94;61.65;99643.16;3112815;28;20048;-51
2022/01/22 02:54:01;;;;;;;1.90;1.10;;;;;;;14.94;61.50;99652.00;3116264;28;20049;-49
2022/01/22 02:55:34;;;;;;;1.60;1.13;;;;;;;14.93;61.75;99645.00;3111674;28;20069;-50
2022/01/22 02:57:08;;;;;;;1.45;1.35;;;;;;;14.94;61.76;99651.16;3115992;28;20183;-52
2022/01/22 02:58:40;;;;;;;2.47;1.67;;;;;;;14.92;61.52;99648.63;3116334;28;20536;-50
2022/01/22 03:00:17;;;;;;;2.03;1.10;;;;;;;14.91;61.62;99641.63;3114129;28;20037;-52
2022/01/22 03:01:49;;;;;;;1.60;1.50;;;;;;;14.91;61.60;99640.81;3115639;28;20052;-50
2022/01/22 03:03:23;;;;;;;1.27;1.15;;;;;;;14.90;61.65;99650.63;3117605;28;20045;-49
2022/01/22 03:04:54;;;;;;;1.48;1.38;;;;;;;14.89;61.88;99654.28;3115207;28;20060;-50
2022/01/22 03:06:26;;;;;;;1.45;1.20;;;;;;;14.90;61.76;99650.63;3115117;28;20045;-51
2022/01/22 03:08:04;;;;;;;2.20;1.27;;;;;;;14.89;61.57;99654.28;3114769;28;20057;-49
2022/01/22 03:09:41;;;;;;;2.13;1.40;;;;;;;14.90;61.50;99666.66;3115413;28;20042;-49
2022/01/22 03:11:24;;;;;;;2.22;1.67;;;;;;;14.87;61.84;99653.59;3114170;28;20136;-46
2022/01/22 03:17:23;;;;;;;1.13;1.00;;;;;;;14.86;61.78;99651.94;3112129;28;20048;-49
2022/01/22 03:18:59;;;;;;;2.08;1.30;;;;;;;14.85;61.72;99657.41;3112455;28;20131;-50
2022/01/22 03:22:26;;;;;;;1.35;1.17;;;;;;;14.84;61.69;99651.25;3108205;28;20052;-49
2022/01/22 03:27:38;;;;;;;2.00;0.95;;;;;;;14.82;61.87;99658.59;3112975;28;20042;-51
2022/01/22 03:29:14;;;;;;;1.60;1.40;;;;;;;14.80;61.66;99655.22;3106690;28;20062;-51
2022/01/22 03:30:45;;;;;;;3.28;1.73;;;;;;;14.79;61.69;99655.38;3120402;28;20052;-50
2022/01/22 03:32:20;;;;;;;2.30;1.38;;;;;;;14.79;61.76;99658.03;3121716;28;20053;-52
2022/01/22 03:33:55;;;;;;;1.27;1.17;;;;;;;14.77;61.65;99652.03;3123457;28;20067;-51
2022/01/22 03:35:34;;;;;;;2.30;1.38;;;;;;;14.75;61.71;99660.19;3122217;28;20048;-51
2022/01/22 03:37:09;;;;;;;1.45;1.35;;;;;;;14.74;61.77;99656.69;3106985;28;20037;-50
2022/01/22 03:38:41;;;;;;;1.10;1.00;;;;;;;14.74;61.81;99650.50;3112862;28;20584;-50
2022/01/22 03:40:14;;;;;;;1.60;1.40;;;;;;;14.74;61.76;99656.69;3120200;28;20168;-49
2022/01/22 03:41:51;;;;;;;0.93;0.90;;;;;;;14.72;61.73;99658.66;3119962;28;20041;-52
2022/01/22 03:43:23;;;;;;;1.40;1.30;;;;;;;14.72;61.62;99657.81;3121646;28;20133;-51
2022/01/22 03:44:58;;;;;;;1.35;1.23;;;;;;;14.72;61.67;99657.81;3125727;28;20539;-50
2022/01/22 03:46:33;;;;;;;2.17;1.02;;;;;;;14.71;61.64;99661.50;3121043;28;20495;-48
2022/01/22 03:48:05;;;;;;;2.03;1.25;;;;;;;14.70;61.80;99660.63;3121186;28;20504;-50
2022/01/22 03:49:37;;;;;;;1.35;1.25;;;;;;;14.68;61.87;99659.09;3119423;28;20531;-49
2022/01/22 03:51:09;;;;;;;2.58;1.15;;;;;;;14.68;61.77;99664.44;3122369;28;20056;-48
2022/01/22 03:52:42;;;;;;;2.80;1.23;;;;;;;14.66;61.88;99658.44;3125100;28;20042;-50
2022/01/22 03:54:14;;;;;;;1.20;1.10;;;;;;;14.66;61.95;99658.44;3128022;28;20049;-50
2022/01/22 03:55:54;;;;;;;2.58;1.20;;;;;;;14.66;61.67;99655.78;3124673;28;20050;-49
2022/01/22 03:57:27;;;;;;;1.17;1.08;;;;;;;14.65;61.77;99667.44;3122756;28;20061;-51
2022/01/22 03:59:01;;;;;;;1.27;1.17;;;;;;;14.64;61.73;99655.09;3123855;28;20056;-48
2022/01/22 04:00:33;;;;;;;1.52;1.25;;;;;;;14.62;61.94;99651.72;3122625;28;20114;-52
2022/01/22 04:02:52;;;;;;;2.25;1.33;;;;;;;14.61;61.77;99658.91;3123394;28;20048;-52
2022/01/22 04:04:26;;;;;;;2.55;1.35;;;;;;;14.59;61.73;99657.38;3121040;28;20111;-51
2022/01/22 04:08:11;;;;;;;3.53;1.63;;;;;;;14.58;61.89;99650.34;3073186;28;20270;-51
2022/01/22 04:09:45;;;;;;;1.88;1.50;;;;;;;14.57;61.85;99656.66;3079526;28;20087;-47
2022/01/22 04:11:17;;;;;;;1.38;1.13;;;;;;;14.55;62.00;99646.16;3122354;28;20054;-51
2022/01/22 04:12:59;;;;;;;2.13;1.30;;;;;;;14.55;61.88;99642.66;3112321;28;20095;-50
2022/01/22 04:14:36;;;;;;;2.13;1.10;;;;;;;14.55;61.84;99650.66;3110804;28;20107;-51
2022/01/22 04:16:13;;;;;;;1.63;1.52;;;;;;;14.52;61.79;99644.63;3117097;28;20042;-52
2022/01/22 04:25:03;;;;;;;1.75;1.13;;;;;;;14.47;61.97;99646.06;3121982;28;20400;-51
2022/01/22 04:26:42;;;;;;;1.40;1.17;;;;;;;14.46;61.88;99650.56;3118775;28;20118;-48
2022/01/22 04:28:14;;;;;;;1.30;1.13;;;;;;;14.46;61.89;99644.38;3122894;28;20157;-52
2022/01/22 04:29:46;;;;;;;1.25;1.15;;;;;;;14.44;61.91;99647.19;3125169;28;20053;-50
2022/01/22 04:31:18;;;;;;;1.75;1.40;;;;;;;14.44;61.95;99646.34;3124128;28;20129;-53
2022/01/22 04:32:52;;;;;;;2.08;1.42;;;;;;;14.41;61.93;99650.16;3119682;28;20411;-49
2022/01/22 04:34:23;;;;;;;1.70;1.60;;;;;;;14.41;62.21;99646.66;3118593;28;20049;-49
2022/01/22 04:35:55;;;;;;;1.05;0.98;;;;;;;14.39;61.96;99649.47;3114297;28;20734;-47
2022/01/22 04:37:28;;;;;;;1.50;1.40;;;;;;;14.38;62.10;99645.13;3121127;28;20057;-49
2022/01/22 04:38:59;;;;;;;1.67;1.00;;;;;;;14.38;62.07;99646.97;3120842;28;20060;-50
2022/01/22 04:40:31;;;;;;;1.27;1.17;;;;;;;14.36;61.97;99643.59;3126002;28;20654;-48
2022/01/22 04:42:04;;;;;;;1.65;1.55;;;;;;;14.35;61.89;99637.44;3121764;28;20727;-50
2022/01/22 04:43:42;;;;;;;2.20;1.85;;;;;;;14.35;62.15;99639.25;3123087;28;20068;-51
2022/01/22 04:45:20;;;;;;;1.52;1.30;;;;;;;14.33;62.15;99634.06;3123890;28;20679;-49
2022/01/22 04:46:59;;;;;;;2.25;1.50;;;;;;;14.33;61.93;99641.25;3118343;28;22055;-50
2022/01/22 04:48:43;;;;;;;2.15;1.17;;;;;;;14.33;61.87;99646.59;3121776;28;20123;-51
2022/01/22 04:55:46;;;;;;;1.35;1.10;;;;;;;14.42;61.93;99641.16;3122493;28;20637;-50
2022/01/22 04:57:18;;;;;;;1.40;1.00;;;;;;;14.44;61.90;99641.84;3125332;28;20052;-50
2022/01/22 04:58:52;;;;;;;1.60;1.33;;;;;;;14.45;61.86;99638.19;3121071;28;20045;-51
2022/01/22 05:00:26;;;;;;;1.55;1.30;;;;;;;14.45;61.90;99642.69;3120158;28;20411;-48
2022/01/22 05:02:00;;;;;;;1.73;1.52;;;;;;;14.44;61.76;99641.84;3121640;28;20056;-49
2022/01/22 05:03:32;;;;;;;1.55;1.27;;;;;;;14.44;61.80;99639.19;3122259;28;20048;-50
2022/01/22 05:05:06;;;;;;;1.25;1.15;;;;;;;14.46;61.87;99642.56;3121427;28;20044;-48
2022/01/22 05:06:40;;;;;;;2.72;1.40;;;;;;;14.47;61.73;99641.53;3123340;28;20044;-49
2022/01/22 05:08:11;;;;;;;1.85;1.35;;;;;;;14.53;61.91;99642.78;3120506;28;20133;-51
2022/01/22 05:09:45;;;;;;;1.50;1.27;;;;;;;14.58;61.69;99639.69;3121082;28;20080;-50
2022/01/22 05:11:19;;;;;;;2.28;1.27;;;;;;;14.63;61.86;99642.72;3120943;28;20056;-51
2022/01/22 05:12:53;;;;;;;1.88;1.45;;;;;;;14.69;61.67;99642.13;3119690;28;20057;-53
2022/01/22 05:14:26;;;;;;;1.73;1.30;;;;;;;14.77;61.58;99644.03;3119743;28;20068;-51
2022/01/22 05:15:58;;;;;;;2.20;1.02;;;;;;;14.83;61.46;99636.22;3124981;28;20055;-47
2022/01/22 05:17:31;;;;;;;1.33;0.93;;;;;;;14.91;61.47;99638.13;3117688;28;20156;-51
2022/01/22 05:19:10;;;;;;;1.73;1.58;;;;;;;14.96;61.30;99644.69;3124391;28;20053;-52
2022/01/22 05:20:49;;;;;;;1.40;1.30;;;;;;;15.08;61.10;99647.09;3115799;28;20108;-49
2022/01/22 05:22:38;;;;;;;1.30;1.20;;;;;;;15.13;61.08;99642.13;3123455;28;20041;-52
2022/01/22 05:24:15;;;;;;;1.83;1.40;;;;;;;15.21;60.89;99636.84;3122326;28;20055;-52
2022/01/22 05:25:53;;;;;;;1.35;1.25;;;;;;;15.28;60.94;99648.56;3118243;28;20072;-50
2022/01/22 05:27:46;;;;;;;1.40;1.23;;;;;;;15.34;60.88;99642.59;3122040;28;20052;-52
2022/01/22 05:31:23;;;;;;;1.15;1.05;;;;;;;15.49;60.51;99633.97;3124213;28;20637;-49
2022/01/22 05:33:03;;;;;;;1.15;0.95;;;;;;;15.57;60.49;99626.00;3124264;28;20049;-51
2022/01/22 05:38:19;;;;;;;1.38;1.10;;;;;;;15.74;60.20;99633.16;3124918;28;20068;-49
2022/01/22 05:39:54;;;;;;;1.40;1.30;;;;;;;15.77;60.26;99632.81;3119593;28;20084;-48
2022/01/22 05:41:25;;;;;;;1.55;1.45;;;;;;;15.80;60.13;99640.53;3123669;28;20049;-50
2022/01/22 05:42:59;;;;;;;2.10;1.30;;;;;;;15.87;60.18;99646.06;3120649;28;20458;-51
2022/01/22 05:44:32;;;;;;;1.95;1.23;;;;;;;15.92;59.91;99645.59;3121876;28;20052;-51
2022/01/22 05:46:05;;;;;;;0.80;0.80;;;;;;;15.96;59.89;99646.94;3123535;28;20076;-52
2022/01/22 05:47:41;;;;;;;1.67;1.20;;;;;;;16.00;59.97;99649.13;3123556;28;20048;-49
2022/01/22 05:49:15;;;;;;;2.28;1.63;;;;;;;16.03;59.88;99653.31;3118035;28;20628;-51
2022/01/22 05:50:51;;;;;;;1.10;0.95;;;;;;;16.06;59.68;99647.63;3122205;28;20064;-50
2022/01/22 05:52:30;;;;;;;1.35;1.15;;;;;;;16.07;59.71;99643.94;3121782;28;20132;-53
2022/01/22 05:54:30;;;;;;;1.45;1.23;;;;;;;16.11;59.85;99647.16;3124183;28;20045;-49
2022/01/22 05:59:45;;;;;;;1.45;1.15;;;;;;;16.19;59.59;99652.53;3088896;28;21043;-53
2022/01/22 06:01:19;;;;;;;1.02;0.95;;;;;;;16.19;59.47;99648.03;3121169;28;20114;-52
2022/01/22 06:02:50;;;;;;;1.50;0.95;;;;;;;16.19;59.51;99656.06;3122109;28;20087;-50
2022/01/22 06:04:22;;;;;;;0.93;0.80;;;;;;;16.21;59.60;99654.03;3120637;28;20053;-50
2022/01/22 06:05:55;;;;;;;2.45;1.27;;;;;;;16.21;59.56;99659.38;3121578;28;20044;-53
2022/01/22 06:07:27;;;;;;;2.10;0.90;;;;;;;16.23;59.50;99661.91;3118618;28;20046;-46
2022/01/22 06:09:02;;;;;;;0.85;0.85;;;;;;;16.23;59.52;99665.41;3120472;28;20053;-54
2022/01/22 06:10:35;;;;;;;0.80;0.80;;;;;;;16.24;59.43;99664.44;3127073;28;20522;-54
2022/01/22 06:12:16;;;;;;;1.55;1.45;;;;;;;16.25;59.44;99679.50;3125550;28;20052;-52
2022/01/22 06:13:47;;;;;;;1.10;1.00;;;;;;;16.26;59.32;99670.44;3125614;28;20053;-52
2022/01/22 06:15:19;;;;;;;2.17;1.10;;;;;;;16.27;59.34;99671.31;3123454;28;20083;-51
2022/01/22 06:16:54;;;;;;;1.08;0.98;;;;;;;16.28;59.37;99676.47;3125235;28;20056;-53
2022/01/22 06:18:26;;;;;;;1.02;0.90;;;;;;;16.27;59.23;99673.97;3125623;28;20083;-47
2022/01/22 06:19:59;;;;;;;1.38;0.90;;;;;;;16.27;59.44;99674.81;3119009;28;20056;-52
2022/01/22 06:21:33;;;;;;;1.40;0.90;;;;;;;16.26;59.42;99675.78;3118925;28;20055;-49
2022/01/22 06:23:06;;;;;;;2.30;1.08;;;;;;;16.27;59.33;99671.31;3122887;28;20053;-52
2022/01/22 06:24:37;;;;;;;1.10;1.00;;;;;;;16.25;59.34;99667.94;3121117;28;20060;-49
2022/01/22 06:26:11;;;;;;;1.40;1.27;;;;;;;16.26;59.40;99664.25;3121957;28;20652;-47
2022/01/22 06:27:46;;;;;;;1.42;1.27;;;;;;;16.25;59.34;99667.94;3123566;28;20049;-53
2022/01/22 06:29:18;;;;;;;0.90;0.90;;;;;;;16.25;59.37;99670.63;3124322;28;20200;-49
2022/01/22 06:30:56;;;;;;;3.28;1.30;;;;;;;16.24;59.38;99671.59;3123494;28;20136;-51
2022/01/22 06:32:29;;;;;;;1.25;1.15;;;;;;;16.24;59.37;99667.13;3123338;28;20569;-50
2022/01/22 06:34:01;;;;;;;1.00;0.90;;;;;;;16.24;59.31;99660.91;3121165;28;20056;-51
2022/01/22 06:35:33;;;;;;;1.45;1.23;;;;;;;16.22;59.36;99663.75;3121190;28;20363;-50
2022/01/22 06:37:08;;;;;;;0.73;0.73;;;;;;;16.22;59.34;99669.09;3119277;28;20049;-53
2022/01/22 06:38:42;;;;;;;1.70;1.20;;;;;;;16.22;59.36;99670.94;3119037;28;20557;-51
2022/01/22 06:42:05;;;;;;;0.82;0.82;;;;;;;16.20;59.33;99673.78;3121149;28;20618;-51
2022/01/22 06:43:37;;;;;;;0.85;0.55;;;;;;;16.21;59.25;99661.22;3121129;28;20049;-50
2022/01/22 06:45:09;;;;;;;1.80;1.10;;;;;;;16.22;59.42;99673.63;3123750;28;20328;-49
2022/01/22 06:46:42;;;;;;;1.52;0.90;;;;;;;16.23;59.43;99665.41;3121480;28;20052;-52
2022/01/22 06:48:15;;;;;;;1.05;0.85;;;;;;;16.24;59.34;99666.25;3121241;28;20045;-51
2022/01/22 06:49:47;;;;;;;1.15;0.77;;;;;;;16.25;59.38;99660.75;3124071;28;20056;-48
2022/01/22 06:51:22;;;;;;;1.70;1.00;;;;;;;16.25;59.28;99663.44;3124270;28;20091;-51
2022/01/22 06:52:56;;;;;;;1.08;0.98;;;;;;;16.26;59.32;99666.94;3123070;28;20446;-48
2022/01/22 06:54:30;;;;;;;1.13;0.90;;;;;;;16.26;59.27;99670.44;3119805;28;20053;-50
2022/01/22 06:56:03;;;;;;;0.73;0.60;;;;;;;16.27;59.41;99672.13;3117689;28;20278;-52
2022/01/22 06:57:38;;;;;;;0.95;0.85;;;;;;;16.27;59.33;99673.97;3120599;28;20685;-49
2022/01/22 06:59:11;;;;;;;0.88;0.88;;;;;;;16.27;59.30;99676.66;3124620;28;20055;-53
2022/01/22 07:00:43;;;;;;;1.02;0.88;;;;;;;16.27;59.35;99672.13;3125334;28;20041;-51
2022/01/22 07:02:15;;;;;;;1.10;0.90;;;;;;;16.27;59.31;99671.31;3120200;28;20049;-53
2022/01/22 07:03:50;;;;;;;1.08;0.98;;;;;;;16.26;59.37;99670.44;3123170;28;20088;-52
2022/01/22 07:05:22;;;;;;;0.98;0.93;;;;;;;16.26;59.36;99674.97;3123078;28;20049;-53
2022/01/22 07:06:54;;;;;;;1.10;0.85;;;;;;;16.24;59.38;99679.63;3120499;28;20580;-49
2022/01/22 07:08:26;;;;;;;1.13;1.00;;;;;;;16.25;59.31;99690.19;3123419;28;20740;-52
2022/01/22 07:09:57;;;;;;;1.23;0.70;;;;;;;16.26;59.24;99688.34;3119376;28;20049;-51
2022/01/22 07:11:29;;;;;;;1.33;1.00;;;;;;;16.25;59.16;99684.84;3115564;28;20054;-49
2022/01/22 07:13:00;;;;;;;1.10;1.00;;;;;;;16.25;59.34;99684.84;3123870;28;20288;-51
2022/01/22 07:14:38;;;;;;;0.65;0.65;;;;;;;16.26;59.27;99680.31;3122979;28;20049;-47
2022/01/22 07:16:11;;;;;;;0.77;0.75;;;;;;;16.26;59.28;99685.66;3119773;28;20048;-51
2022/01/22 07:17:44;;;;;;;1.30;0.85;;;;;;;16.28;59.25;99691.72;3121524;28;20060;-50
2022/01/22 07:19:19;;;;;;;1.50;0.88;;;;;;;16.27;59.35;99693.56;3122751;28;20369;-53
2022/01/22 07:20:52;;;;;;;0.82;0.82;;;;;;;16.28;59.23;99691.72;3122568;28;20142;-49
2022/01/22 07:22:35;;;;;;;1.02;0.88;;;;;;;16.28;59.29;99689.88;3115376;28;20049;-49
2022/01/22 07:24:30;;;;;;;1.20;0.98;;;;;;;16.29;59.11;99688.84;3120181;28;20120;-52
2022/01/22 07:26:02;;;;;;;1.10;0.80;;;;;;;16.29;59.21;99691.53;3123616;28;20041;-51
2022/01/22 07:27:34;;;;;;;0.60;0.60;;;;;;;16.29;59.11;99688.84;3123849;28;20057;-53
2022/01/22 07:29:11;;;;;;;1.23;1.15;;;;;;;16.30;59.21;99687.88;3124537;28;20049;-50
2022/01/22 07:30:44;;;;;;;0.77;0.77;;;;;;;16.30;59.14;99687.88;3123123;28;20052;-49
2022/01/22 07:32:26;;;;;;;1.70;1.00;;;;;;;16.31;59.19;99691.38;3118093;28;20381;-50
2022/01/22 07:34:01;;;;;;;1.00;0.90;;;;;;;16.31;59.19;99686.84;3122762;28;20060;-51
2022/01/22 07:35:37;;;;;;;0.95;0.95;;;;;;;16.31;59.18;99692.22;3118962;28;20474;-49
2022/01/22 07:37:12;;;;;;;0.55;0.50;;;;;;;16.32;59.13;99695.72;3117113;28;20585;-50
2022/01/22 07:38:46;;;;;;;1.02;0.82;;;;;;;16.31;59.32;99699.41;3116611;28;20059;-51
2022/01/22 07:40:18;;;;;;;1.95;1.15;;;;;;;16.31;59.27;99705.59;3120012;28;20565;-52
2022/01/22 07:41:51;;;;;;;0.95;0.60;;;;;;;16.31;59.19;99710.13;3120000;28;20056;-49
2022/01/22 07:43:22;;;;;;;0.73;0.73;;;;;;;16.31;59.16;99715.47;3116636;28;20053;-50
2022/01/22 07:44:54;;;;;;;1.27;1.00;;;;;;;16.29;59.14;99710.28;3116905;28;20048;-50
2022/01/22 07:46:27;;;;;;;1.10;0.80;;;;;;;16.30;59.29;99720.00;3113918;28;20053;-50
2022/01/22 07:47:59;;;;;;;1.30;0.77;;;;;;;16.28;59.17;99715.81;3124851;28;20140;-49
2022/01/22 07:49:31;;;;;;;0.70;0.70;;;;;;;16.28;59.23;99710.44;3118651;28;20051;-53
2022/01/22 07:51:07;;;;;;;1.20;1.10;;;;;;;16.27;59.16;99717.66;3122984;28;20060;-51
2022/01/22 07:52:40;;;;;;;1.13;0.65;;;;;;;16.27;59.22;99714.13;3120719;28;20045;-52
2022/01/22 07:54:12;;;;;;;1.83;1.10;;;;;;;16.26;59.23;99707.09;3115877;28;20085;-52
2022/01/22 07:55:47;;;;;;;0.68;0.68;;;;;;;16.25;59.20;99705.41;3120417;28;20068;-53
2022/01/22 07:57:20;;;;;;;0.82;0.75;;;;;;;16.25;59.18;99700.06;3118651;28;20064;-49
2022/01/22 07:58:52;;;;;;;0.90;0.77;;;;;;;16.24;59.15;99704.59;3119162;28;20098;-52
2022/01/22 08:00:24;;;;;;;0.85;0.80;;;;;;;16.22;59.22;99701.22;3113192;28;20148;-51
2022/01/22 08:02:01;;;;;;;0.80;0.80;;;;;;;16.23;59.23;99702.06;3112028;28;24969;-50
2022/01/22 08:03:33;;;;;;;1.05;0.70;;;;;;;16.21;59.30;99704.06;3121872;28;20052;-50
2022/01/22 08:05:09;;;;;;;0.77;0.70;;;;;;;16.19;59.29;99696.19;3121620;28;20181;-51
2022/01/22 08:06:42;;;;;;;2.15;0.63;;;;;;;16.20;59.41;99697.03;3120680;28;20795;-49
2022/01/22 08:08:16;;;;;;;1.25;0.98;;;;;;;16.19;59.23;99695.38;3116264;28;20046;-52
2022/01/22 08:09:50;;;;;;;0.80;0.73;;;;;;;16.16;59.33;99698.34;3112829;28;20093;-52
2022/01/22 08:11:22;;;;;;;1.50;0.80;;;;;;;16.14;59.22;99709.22;3115533;28;20633;-50
2022/01/22 08:12:56;;;;;;;0.90;0.77;;;;;;;16.14;59.25;99701.19;3108338;28;20052;-53
2022/01/22 08:14:28;;;;;;;1.40;1.27;;;;;;;16.14;59.37;99703.88;3114600;28;20052;-48
2022/01/22 08:16:00;;;;;;;0.60;0.60;;;;;;;16.12;59.32;99697.84;3106376;28;20046;-51
2022/01/22 08:17:32;;;;;;;0.93;0.93;;;;;;;16.11;59.41;99704.19;3106332;28;20072;-51
2022/01/22 08:19:04;;;;;;;0.63;0.63;;;;;;;16.08;59.35;99700.00;3106850;28;20910;-53
2022/01/22 08:20:36;;;;;;;1.75;0.80;;;;;;;16.08;59.43;99701.84;3114473;28;20048;-52
2022/01/22 08:22:10;;;;;;;0.88;0.80;;;;;;;16.07;59.32;99708.19;3104094;28;20045;-52
2022/01/22 08:23:41;;;;;;;0.77;0.77;;;;;;;16.04;59.31;99701.31;3102734;28;20063;-49
2022/01/22 08:25:14;;;;;;;1.27;0.65;;;;;;;16.04;59.54;99714.69;3103069;28;20587;-50
2022/01/22 08:26:49;;;;;;;1.73;1.15;;;;;;;16.01;59.38;99706.97;3115079;28;20048;-49
2022/01/22 08:31:52;;;;;;;1.23;0.70;;;;;;;15.98;59.29;99714.50;3300469;22;20055;-51